Time;durP1;ratioP1;P1;durP2;ratioP2;P2;SDS_P1;SDS_P2;PMS_P1;PMS_P2;Temp;Humidity;BMP_temperature;BMP_pressure;BME280_temperature;BME280_humidity;BME280_pressure;Samples;Min_cycle;Max_cycle;Signal;HPM_P1;HPM_P2
2022/11/05 00:09:35;;;;;;;13.83;8.93;;;;;;;;;;5011677;28;20218;-81
2022/11/05 00:17:34;;;;;;;14.33;9.00;;;;;;;;;;5013169;28;20602;-81
2022/11/05 00:20:02;;;;;;;16.07;8.70;;;;;;;;;;5028650;28;20230;-81
2022/11/05 00:25:15;;;;;;;12.03;8.50;;;;;;;;;;5015771;28;20198;-81
2022/11/05 00:27:43;;;;;;;10.23;7.90;;;;;;;;;;5014695;28;20266;-81
2022/11/05 00:30:10;;;;;;;15.63;8.27;;;;;;;;;;5015206;28;20231;-81
2022/11/05 00:32:39;;;;;;;12.90;8.30;;;;;;;;;;5027218;28;20729;-82
2022/11/05 00:35:07;;;;;;;13.20;8.70;;;;;;;;;;5035089;28;20214;-81
2022/11/05 00:37:34;;;;;;;11.37;8.60;;;;;;;;;;5034317;28;20239;-81
2022/11/05 00:40:01;;;;;;;16.97;9.33;;;;;;;;;;5035179;28;20239;-81
2022/11/05 00:45:13;;;;;;;9.63;8.33;;;;;;;;;;5030234;28;20655;-81
2022/11/05 00:50:27;;;;;;;13.50;8.73;;;;;;;;;;5032820;28;20256;-81
2022/11/05 00:52:55;;;;;;;14.67;9.00;;;;;;;;;;5034261;28;20239;-81
2022/11/05 00:55:22;;;;;;;15.77;9.33;;;;;;;;;;5034717;28;20305;-81
2022/11/05 00:57:49;;;;;;;15.40;8.97;;;;;;;;;;5014662;28;20235;-81
2022/11/05 01:00:17;;;;;;;12.30;9.13;;;;;;;;;;5014817;28;20231;-81
2022/11/05 01:02:45;;;;;;;11.67;9.10;;;;;;;;;;5014364;28;20752;-81
2022/11/05 01:05:12;;;;;;;15.70;9.63;;;;;;;;;;5034833;28;20206;-81
2022/11/05 01:07:39;;;;;;;15.47;9.10;;;;;;;;;;5033369;28;20237;-81
2022/11/05 01:10:07;;;;;;;16.27;8.80;;;;;;;;;;5025740;28;20227;-81
2022/11/05 01:12:34;;;;;;;10.40;8.47;;;;;;;;;;5027728;28;20707;-81
2022/11/05 01:15:01;;;;;;;17.67;9.10;;;;;;;;;;5022139;28;20206;-81
2022/11/05 01:17:28;;;;;;;12.47;8.93;;;;;;;;;;5014628;28;20227;-81
2022/11/05 01:19:57;;;;;;;16.73;9.00;;;;;;;;;;5033123;28;20233;-82
2022/11/05 01:22:24;;;;;;;13.47;8.87;;;;;;;;;;5034471;28;20238;-81
2022/11/05 01:24:51;;;;;;;12.13;8.63;;;;;;;;;;5023119;28;20204;-80
2022/11/05 01:27:18;;;;;;;12.70;8.60;;;;;;;;;;5013955;28;20238;-81
2022/11/05 01:29:45;;;;;;;13.10;8.60;;;;;;;;;;5013789;28;20714;-82
2022/11/05 01:32:12;;;;;;;9.83;8.23;;;;;;;;;;5014101;28;20243;-83
2022/11/05 01:34:39;;;;;;;14.57;9.50;;;;;;;;;;5014306;28;20624;-82
2022/11/05 01:37:08;;;;;;;12.80;8.70;;;;;;;;;;5013405;28;20333;-83
2022/11/05 01:39:35;;;;;;;12.77;8.37;;;;;;;;;;5013838;28;20715;-83
2022/11/05 01:42:02;;;;;;;14.07;8.23;;;;;;;;;;5013949;28;20242;-83
2022/11/05 01:44:48;;;;;;;13.47;8.90;;;;;;;;;;5014433;28;20208;-83
2022/11/05 01:47:20;;;;;;;12.20;8.87;;;;;;;;;;5013624;28;20235;-83
2022/11/05 01:49:48;;;;;;;13.63;8.67;;;;;;;;;;5013938;28;20239;-83
2022/11/05 01:52:16;;;;;;;14.10;8.80;;;;;;;;;;5019212;28;20226;-82
2022/11/05 01:54:43;;;;;;;14.40;8.47;;;;;;;;;;5033818;28;20237;-83
2022/11/05 01:57:11;;;;;;;13.27;9.17;;;;;;;;;;5033279;28;20239;-83
2022/11/05 01:59:40;;;;;;;13.67;8.80;;;;;;;;;;5032577;28;20719;-83
2022/11/05 02:02:08;;;;;;;11.63;8.50;;;;;;;;;;5028689;28;20245;-83
2022/11/05 02:04:36;;;;;;;12.37;9.17;;;;;;;;;;5022511;28;20204;-83
2022/11/05 02:07:05;;;;;;;14.33;9.20;;;;;;;;;;5032161;28;20597;-83
2022/11/05 02:09:35;;;;;;;11.13;8.40;;;;;;;;;;5033292;28;20227;-83
2022/11/05 02:12:02;;;;;;;12.43;8.87;;;;;;;;;;5032997;28;20239;-83
2022/11/05 02:14:29;;;;;;;12.57;8.87;;;;;;;;;;5033124;28;20698;-82
2022/11/05 02:16:58;;;;;;;13.30;8.30;;;;;;;;;;5032840;28;20321;-82
2022/11/05 02:19:43;;;;;;;12.70;8.97;;;;;;;;;;5032954;28;20226;-82
2022/11/05 02:22:20;;;;;;;15.93;9.63;;;;;;;;;;5026226;28;20725;-82
2022/11/05 02:24:56;;;;;;;16.70;9.83;;;;;;;;;;5013639;28;20214;-82
2022/11/05 02:27:31;;;;;;;14.67;9.77;;;;;;;;;;5012740;28;20715;-82
2022/11/05 02:30:10;;;;;;;14.10;9.10;;;;;;;;;;5013029;28;20238;-82
2022/11/05 02:32:44;;;;;;;13.77;8.63;;;;;;;;;;5012590;28;20285;-82
2022/11/05 02:35:16;;;;;;;12.30;9.53;;;;;;;;;;5019187;28;20202;-82
2022/11/05 02:37:46;;;;;;;13.37;9.20;;;;;;;;;;5031930;28;20245;-83
2022/11/05 02:40:16;;;;;;;12.93;8.87;;;;;;;;;;5026196;28;20302;-82
2022/11/05 02:42:45;;;;;;;14.53;9.03;;;;;;;;;;5018641;28;20240;-82
2022/11/05 02:45:19;;;;;;;10.90;8.90;;;;;;;;;;5031094;28;20221;-82
2022/11/05 02:47:48;;;;;;;13.10;9.77;;;;;;;;;;5012140;28;20231;-82
2022/11/05 02:50:20;;;;;;;17.93;8.90;;;;;;;;;;5018453;28;20214;-82
2022/11/05 02:52:52;;;;;;;12.50;9.47;;;;;;;;;;5032555;28;20230;-82
2022/11/05 02:55:23;;;;;;;15.57;9.40;;;;;;;;;;5032557;28;20250;-82
2022/11/05 02:57:50;;;;;;;14.50;9.13;;;;;;;;;;5031913;28;20714;-82
2022/11/05 03:00:50;;;;;;;16.83;9.77;;;;;;;;;;5032754;28;20234;-82
2022/11/05 03:03:22;;;;;;;12.90;9.13;;;;;;;;;;4990355;28;20319;-82
2022/11/05 03:05:56;;;;;;;15.80;9.93;;;;;;;;;;4989785;28;20212;-82
2022/11/05 03:08:31;;;;;;;16.23;9.80;;;;;;;;;;4992417;28;20235;-82
2022/11/05 03:11:01;;;;;;;15.17;10.10;;;;;;;;;;5012122;28;20221;-82
2022/11/05 03:13:31;;;;;;;16.73;9.90;;;;;;;;;;5012802;28;20221;-82
2022/11/05 03:16:01;;;;;;;16.97;9.93;;;;;;;;;;5016809;28;20198;-82
2022/11/05 03:18:36;;;;;;;16.13;9.57;;;;;;;;;;5031969;28;20230;-82
2022/11/05 03:21:05;;;;;;;18.07;10.10;;;;;;;;;;5023273;28;20597;-82
2022/11/05 03:23:36;;;;;;;17.13;10.17;;;;;;;;;;5031200;28;20213;-82
2022/11/05 03:26:06;;;;;;;12.57;9.77;;;;;;;;;;5031540;28;20562;-82
2022/11/05 03:28:35;;;;;;;16.90;10.03;;;;;;;;;;5011853;28;20235;-82
2022/11/05 03:31:04;;;;;;;17.77;10.37;;;;;;;;;;5023892;28;20691;-82
2022/11/05 03:33:34;;;;;;;17.83;10.07;;;;;;;;;;5015983;28;20196;-82
2022/11/05 03:36:02;;;;;;;17.87;10.47;;;;;;;;;;5020248;28;20195;-82
2022/11/05 03:38:31;;;;;;;16.30;11.00;;;;;;;;;;5024460;28;20219;-82
2022/11/05 03:40:59;;;;;;;14.17;10.27;;;;;;;;;;5011497;28;20672;-82
2022/11/05 03:43:29;;;;;;;20.47;10.60;;;;;;;;;;5026642;28;20562;-82
2022/11/05 03:45:57;;;;;;;19.33;10.97;;;;;;;;;;5031395;28;20249;-82
2022/11/05 03:48:26;;;;;;;18.47;10.43;;;;;;;;;;5031243;28;20236;-82
2022/11/05 03:50:56;;;;;;;16.40;10.87;;;;;;;;;;5031628;28;20211;-82
2022/11/05 03:53:25;;;;;;;18.43;11.07;;;;;;;;;;5021381;28;20237;-82
2022/11/05 03:55:55;;;;;;;16.27;9.83;;;;;;;;;;5019773;28;20702;-82
2022/11/05 03:58:23;;;;;;;15.97;10.63;;;;;;;;;;5011560;28;20230;-82
2022/11/05 04:00:50;;;;;;;19.10;11.27;;;;;;;;;;5018929;28;20210;-82
2022/11/05 04:03:17;;;;;;;16.30;10.30;;;;;;;;;;5035055;28;20721;-82
2022/11/05 04:13:22;;;;;;;16.13;10.13;;;;;;;;;;5034787;28;20213;-82
2022/11/05 04:14:02;;;;;;;19.97;10.47;;;;;;;;;;5015403;28;20214;-82
2022/11/05 04:24:06;;;;;;;20.10;10.20;;;;;;;;;;5015216;28;20250;-82
2022/11/05 04:24:47;;;;;;;16.53;10.23;;;;;;;;;;5034131;28;20579;-82
2022/11/05 04:27:14;;;;;;;21.67;11.27;;;;;;;;;;5034662;28;20257;-82
2022/11/05 04:32:25;;;;;;;17.40;10.90;;;;;;;;;;5000992;28;20231;-82
2022/11/05 04:34:53;;;;;;;16.37;10.67;;;;;;;;;;5015220;28;20630;-83
2022/11/05 04:37:20;;;;;;;18.40;10.80;;;;;;;;;;5014630;28;20734;-83
2022/11/05 04:39:48;;;;;;;16.97;10.47;;;;;;;;;;5014790;28;20233;-84
2022/11/05 04:42:15;;;;;;;15.87;10.40;;;;;;;;;;5014645;28;20707;-83
2022/11/05 04:44:42;;;;;;;17.83;10.10;;;;;;;;;;5022595;28;20203;-83
2022/11/05 04:47:09;;;;;;;16.77;9.70;;;;;;;;;;5034216;28;20607;-83
2022/11/05 04:49:36;;;;;;;18.37;11.30;;;;;;;;;;5019493;28;20223;-83
2022/11/05 04:52:03;;;;;;;22.17;11.17;;;;;;;;;;5024438;28;20234;-83
2022/11/05 04:54:31;;;;;;;21.97;12.07;;;;;;;;;;5034730;28;20230;-83
2022/11/05 04:56:59;;;;;;;22.67;11.57;;;;;;;;;;5034041;28;20241;-82
2022/11/05 04:59:26;;;;;;;20.67;12.30;;;;;;;;;;5020935;28;20227;-83
2022/11/05 05:01:53;;;;;;;19.73;12.03;;;;;;;;;;5026291;28;20940;-82
2022/11/05 05:04:20;;;;;;;24.47;12.63;;;;;;;;;;5016694;28;20211;-83
2022/11/05 05:06:47;;;;;;;21.43;12.37;;;;;;;;;;5018052;28;20231;-83
2022/11/05 05:09:14;;;;;;;21.20;12.90;;;;;;;;;;5014628;28;20246;-82
2022/11/05 05:11:42;;;;;;;21.43;12.80;;;;;;;;;;5030362;28;20223;-82
2022/11/05 05:14:10;;;;;;;21.67;12.93;;;;;;;;;;5028182;28;20626;-82
2022/11/05 05:16:37;;;;;;;24.33;13.53;;;;;;;;;;5014010;28;20231;-82
2022/11/05 05:19:04;;;;;;;24.27;13.07;;;;;;;;;;5014148;28;20715;-82
2022/11/05 05:21:40;;;;;;;27.80;14.27;;;;;;;;;;5014340;28;20227;-82
2022/11/05 05:24:08;;;;;;;31.63;13.77;;;;;;;;;;5026184;28;20252;-82
2022/11/05 05:26:36;;;;;;;28.53;14.47;;;;;;;;;;5032617;28;20231;-82
2022/11/05 05:29:03;;;;;;;23.63;13.93;;;;;;;;;;5024802;28;20229;-82
2022/11/05 05:31:31;;;;;;;27.00;14.73;;;;;;;;;;5025067;28;20227;-82
2022/11/05 05:33:58;;;;;;;26.90;14.67;;;;;;;;;;5017082;28;20695;-82
2022/11/05 05:36:25;;;;;;;21.77;12.87;;;;;;;;;;5032592;28;20588;-82
2022/11/05 05:38:53;;;;;;;25.13;13.17;;;;;;;;;;5026602;28;20230;-82
2022/11/05 05:41:20;;;;;;;22.93;14.40;;;;;;;;;;5033284;28;20229;-82
2022/11/05 05:43:47;;;;;;;28.67;13.97;;;;;;;;;;5030779;28;20210;-82
2022/11/05 05:46:15;;;;;;;29.83;14.43;;;;;;;;;;5035895;28;20709;-82
2022/11/05 05:48:44;;;;;;;23.67;14.17;;;;;;;;;;5019353;28;20223;-82
2022/11/05 05:51:12;;;;;;;25.90;14.10;;;;;;;;;;5020085;28;20686;-81
2022/11/05 05:53:39;;;;;;;25.50;14.60;;;;;;;;;;5013805;28;20208;-80
2022/11/05 05:56:06;;;;;;;28.60;14.67;;;;;;;;;;5028131;28;20223;-82
2022/11/05 05:58:35;;;;;;;27.27;15.33;;;;;;;;;;5013878;28;20255;-81
2022/11/05 06:01:02;;;;;;;24.93;15.03;;;;;;;;;;5027236;28;20225;-82
2022/11/05 06:03:29;;;;;;;27.93;15.23;;;;;;;;;;5020381;28;20600;-81
2022/11/05 06:06:01;;;;;;;26.47;15.00;;;;;;;;;;5030502;28;20203;-81
2022/11/05 06:08:29;;;;;;;31.87;16.43;;;;;;;;;;5042470;28;20715;-80
2022/11/05 06:10:56;;;;;;;27.23;15.00;;;;;;;;;;5046123;28;20209;-82
2022/11/05 06:13:23;;;;;;;34.30;17.50;;;;;;;;;;5033235;28;20213;-79
2022/11/05 06:15:50;;;;;;;27.67;15.17;;;;;;;;;;5032770;28;20229;-78
2022/11/05 06:18:17;;;;;;;29.73;15.97;;;;;;;;;;5032122;28;20734;-79
2022/11/05 06:20:44;;;;;;;33.23;16.43;;;;;;;;;;5032993;28;20203;-79
2022/11/05 06:23:13;;;;;;;26.53;13.80;;;;;;;;;;5032420;28;20234;-79
2022/11/05 06:25:40;;;;;;;27.57;15.77;;;;;;;;;;5032993;28;20210;-79
2022/11/05 06:28:07;;;;;;;25.73;14.43;;;;;;;;;;5031817;28;20717;-79
2022/11/05 06:30:34;;;;;;;29.13;14.00;;;;;;;;;;5032575;28;20206;-79
2022/11/05 06:33:04;;;;;;;30.07;14.13;;;;;;;;;;5032131;28;20269;-79
2022/11/05 06:35:33;;;;;;;24.10;14.10;;;;;;;;;;5032470;28;20237;-79
2022/11/05 06:38:01;;;;;;;22.80;12.90;;;;;;;;;;5031849;28;20234;-79
2022/11/05 06:40:29;;;;;;;21.37;12.93;;;;;;;;;;5032746;28;20207;-79
2022/11/05 06:42:56;;;;;;;24.33;13.40;;;;;;;;;;5031885;28;20241;-79
2022/11/05 06:45:23;;;;;;;22.87;12.10;;;;;;;;;;5031715;28;20199;-79
2022/11/05 06:47:55;;;;;;;21.13;11.37;;;;;;;;;;5031588;28;20234;-78
2022/11/05 06:50:22;;;;;;;18.93;11.83;;;;;;;;;;5032178;28;20241;-81
2022/11/05 06:52:53;;;;;;;20.00;12.00;;;;;;;;;;5031093;28;20234;-79
2022/11/05 06:55:20;;;;;;;18.07;11.23;;;;;;;;;;5030865;28;20230;-78
2022/11/05 06:57:48;;;;;;;15.93;9.83;;;;;;;;;;5031623;28;20264;-79
2022/11/05 07:00:16;;;;;;;19.13;9.70;;;;;;;;;;5032166;28;20238;-80
2022/11/05 07:02:43;;;;;;;21.03;10.80;;;;;;;;;;5019380;28;20231;-80
2022/11/05 07:05:10;;;;;;;22.57;11.10;;;;;;;;;;5028442;28;20209;-80
2022/11/05 07:07:38;;;;;;;17.73;11.13;;;;;;;;;;5033155;28;20242;-81
2022/11/05 07:10:05;;;;;;;19.57;10.70;;;;;;;;;;5034568;28;20227;-81
2022/11/05 07:12:32;;;;;;;15.27;10.20;;;;;;;;;;5032976;28;20600;-80
2022/11/05 07:15:00;;;;;;;15.63;10.50;;;;;;;;;;5031571;28;20265;-80
2022/11/05 07:17:28;;;;;;;12.90;9.67;;;;;;;;;;5031182;28;20246;-80
2022/11/05 07:19:55;;;;;;;17.07;9.50;;;;;;;;;;5030634;28;20227;-80
2022/11/05 07:22:22;;;;;;;14.97;8.73;;;;;;;;;;5032454;28;20245;-80
2022/11/05 07:24:49;;;;;;;16.03;9.43;;;;;;;;;;5032793;28;20199;-80
2022/11/05 07:27:16;;;;;;;12.40;8.23;;;;;;;;;;5031307;28;20231;-80
2022/11/05 07:29:43;;;;;;;14.13;8.90;;;;;;;;;;5031429;28;20730;-80
2022/11/05 07:32:12;;;;;;;18.70;9.70;;;;;;;;;;5031126;28;20730;-80
2022/11/05 07:34:39;;;;;;;15.87;8.87;;;;;;;;;;5032149;28;20207;-80
2022/11/05 07:37:06;;;;;;;15.80;9.00;;;;;;;;;;5032991;28;20226;-81
2022/11/05 07:39:33;;;;;;;16.37;9.23;;;;;;;;;;5037654;28;20222;-80
2022/11/05 07:42:00;;;;;;;15.33;8.90;;;;;;;;;;5037335;28;20630;-80
2022/11/05 07:44:27;;;;;;;17.73;9.10;;;;;;;;;;5034300;28;20701;-80
2022/11/05 07:46:55;;;;;;;17.10;9.47;;;;;;;;;;5032758;28;20222;-80
2022/11/05 07:49:23;;;;;;;16.10;10.17;;;;;;;;;;5031905;28;20230;-80
2022/11/05 07:51:50;;;;;;;18.80;9.63;;;;;;;;;;5037615;28;20234;-79
2022/11/05 07:54:17;;;;;;;16.37;9.40;;;;;;;;;;5037865;28;20217;-80
2022/11/05 07:56:47;;;;;;;17.23;9.87;;;;;;;;;;5037760;28;20241;-80
2022/11/05 07:59:14;;;;;;;18.17;9.77;;;;;;;;;;5037675;28;20666;-80
2022/11/05 08:01:41;;;;;;;20.77;9.47;;;;;;;;;;5037806;28;20230;-80
2022/11/05 08:04:08;;;;;;;17.73;10.17;;;;;;;;;;5040069;28;20203;-80
2022/11/05 08:06:36;;;;;;;18.10;9.70;;;;;;;;;;5057551;28;20225;-79
2022/11/05 08:09:04;;;;;;;19.17;10.80;;;;;;;;;;5057983;28;20259;-79
2022/11/05 08:11:33;;;;;;;18.90;10.90;;;;;;;;;;5045327;28;20230;-80
2022/11/05 08:14:01;;;;;;;24.63;13.27;;;;;;;;;;5038289;28;20207;-79
2022/11/05 08:16:28;;;;;;;23.47;12.73;;;;;;;;;;5024348;28;20238;-79
2022/11/05 08:18:55;;;;;;;25.07;12.97;;;;;;;;;;5038683;28;20236;-78
2022/11/05 08:21:22;;;;;;;22.03;11.10;;;;;;;;;;5040413;28;20230;-80
2022/11/05 08:23:50;;;;;;;20.40;12.00;;;;;;;;;;5037785;28;20217;-81
2022/11/05 08:26:18;;;;;;;20.33;10.97;;;;;;;;;;5036309;28;20230;-80
2022/11/05 08:28:45;;;;;;;19.17;10.93;;;;;;;;;;5025003;28;20236;-80
2022/11/05 08:31:14;;;;;;;18.37;11.07;;;;;;;;;;5036506;28;20210;-79
2022/11/05 08:33:41;;;;;;;18.80;9.80;;;;;;;;;;5036814;28;20694;-80
2022/11/05 08:36:08;;;;;;;15.67;9.43;;;;;;;;;;5036875;28;20226;-79
2022/11/05 08:38:35;;;;;;;18.37;10.27;;;;;;;;;;5037520;28;20371;-79
2022/11/05 08:41:04;;;;;;;20.20;10.20;;;;;;;;;;5037276;28;20214;-80
2022/11/05 08:43:31;;;;;;;17.47;9.87;;;;;;;;;;5037885;28;20210;-79
2022/11/05 08:46:00;;;;;;;18.47;10.50;;;;;;;;;;5035778;28;20668;-79
2022/11/05 08:48:27;;;;;;;19.40;10.47;;;;;;;;;;5031124;28;20222;-79
2022/11/05 08:50:54;;;;;;;20.70;11.17;;;;;;;;;;5034063;28;20209;-80
2022/11/05 08:53:21;;;;;;;18.87;10.73;;;;;;;;;;5034393;28;20223;-80
2022/11/05 08:55:50;;;;;;;26.50;13.70;;;;;;;;;;5017761;28;20222;-80
2022/11/05 08:58:19;;;;;;;34.23;17.07;;;;;;;;;;5033694;28;20242;-79
2022/11/05 09:00:47;;;;;;;22.10;12.43;;;;;;;;;;5034606;28;20256;-79
2022/11/05 09:03:15;;;;;;;23.80;12.10;;;;;;;;;;5017806;28;20243;-81
2022/11/05 09:05:42;;;;;;;19.13;11.13;;;;;;;;;;5025073;28;20203;-81
2022/11/05 09:08:10;;;;;;;20.10;11.00;;;;;;;;;;5033260;28;20230;-80
2022/11/05 09:10:38;;;;;;;18.80;11.33;;;;;;;;;;5034467;28;20210;-81
2022/11/05 09:13:05;;;;;;;17.37;10.93;;;;;;;;;;5015721;28;20257;-80
2022/11/05 09:15:34;;;;;;;23.63;11.40;;;;;;;;;;5015407;28;20239;-81
2022/11/05 09:18:01;;;;;;;23.30;12.43;;;;;;;;;;5030831;28;20230;-81
2022/11/05 09:20:29;;;;;;;18.20;11.70;;;;;;;;;;5036004;28;20210;-81
2022/11/05 09:22:56;;;;;;;17.53;11.40;;;;;;;;;;5033791;28;20230;-81
2022/11/05 09:25:23;;;;;;;17.80;10.80;;;;;;;;;;5032919;28;20192;-80
2022/11/05 09:27:50;;;;;;;20.03;10.40;;;;;;;;;;5026136;28;20797;-80
2022/11/05 09:30:17;;;;;;;17.43;10.13;;;;;;;;;;5014714;28;20595;-79
2022/11/05 09:32:46;;;;;;;16.93;10.20;;;;;;;;;;5013913;28;20246;-79
2022/11/05 09:35:13;;;;;;;18.33;10.10;;;;;;;;;;5014147;28;20588;-79
2022/11/05 09:37:40;;;;;;;18.57;10.53;;;;;;;;;;5013578;28;20243;-79
2022/11/05 09:40:07;;;;;;;16.07;9.57;;;;;;;;;;5014103;28;20235;-79
2022/11/05 09:42:37;;;;;;;16.13;9.50;;;;;;;;;;5024834;28;20235;-80
2022/11/05 09:45:08;;;;;;;17.10;9.97;;;;;;;;;;5014236;28;20199;-80
2022/11/05 09:47:36;;;;;;;20.63;10.20;;;;;;;;;;5013462;28;20262;-80
2022/11/05 09:50:08;;;;;;;13.20;8.73;;;;;;;;;;5014157;28;20232;-80
2022/11/05 09:52:35;;;;;;;13.77;10.30;;;;;;;;;;5013422;28;20246;-80
2022/11/05 09:55:04;;;;;;;16.47;9.80;;;;;;;;;;5014093;28;20211;-80
2022/11/05 09:57:32;;;;;;;15.60;9.20;;;;;;;;;;5012872;28;20730;-80
2022/11/05 10:00:02;;;;;;;17.67;9.90;;;;;;;;;;5013558;28;20235;-80
2022/11/05 10:02:30;;;;;;;15.43;9.63;;;;;;;;;;5042422;28;20237;-80
2022/11/05 10:04:59;;;;;;;15.33;9.50;;;;;;;;;;5053383;28;20713;-80
2022/11/05 10:07:30;;;;;;;13.70;9.50;;;;;;;;;;5052861;28;20705;-81
2022/11/05 10:09:58;;;;;;;11.70;9.00;;;;;;;;;;5053951;28;20597;-82
2022/11/05 10:12:29;;;;;;;10.63;8.27;;;;;;;;;;5053195;28;20237;-80
2022/11/05 10:14:59;;;;;;;14.80;8.53;;;;;;;;;;5035929;28;20213;-81
2022/11/05 10:17:28;;;;;;;15.07;8.77;;;;;;;;;;5045839;28;20266;-80
2022/11/05 10:19:58;;;;;;;15.43;9.10;;;;;;;;;;5052423;28;20727;-81
2022/11/05 10:22:25;;;;;;;13.37;8.20;;;;;;;;;;5052217;28;20238;-80
2022/11/05 10:24:55;;;;;;;12.63;8.13;;;;;;;;;;5052656;28;20205;-80
2022/11/05 10:27:23;;;;;;;13.60;8.43;;;;;;;;;;5050329;28;20285;-80
2022/11/05 10:29:51;;;;;;;12.73;8.07;;;;;;;;;;5051750;28;20265;-81
2022/11/05 10:32:21;;;;;;;13.60;7.77;;;;;;;;;;5052311;28;20240;-81
2022/11/05 10:34:49;;;;;;;11.70;7.60;;;;;;;;;;5052483;28;20206;-81
2022/11/05 10:37:16;;;;;;;10.93;7.77;;;;;;;;;;5051917;28;20249;-81
2022/11/05 10:39:43;;;;;;;12.73;8.30;;;;;;;;;;5052249;28;20752;-81
2022/11/05 10:42:19;;;;;;;13.60;7.40;;;;;;;;;;5052278;28;20230;-81
2022/11/05 10:44:51;;;;;;;9.87;7.30;;;;;;;;;;5043859;28;20677;-81
2022/11/05 10:47:33;;;;;;;10.70;6.93;;;;;;;;;;5032102;28;20242;-81
2022/11/05 10:50:01;;;;;;;10.70;7.47;;;;;;;;;;5030063;28;20233;-82
2022/11/05 10:52:31;;;;;;;13.43;7.60;;;;;;;;;;5030984;28;20230;-81
2022/11/05 10:55:00;;;;;;;12.67;7.33;;;;;;;;;;5032224;28;20203;-81
2022/11/05 10:57:30;;;;;;;14.87;7.40;;;;;;;;;;5031583;28;20239;-81
2022/11/05 11:00:15;;;;;;;13.67;6.87;;;;;;;;;;5028950;28;20239;-81
2022/11/05 11:02:43;;;;;;;12.80;6.57;;;;;;;;;;5023958;28;20242;-81
2022/11/05 11:05:11;;;;;;;12.30;7.00;;;;;;;;;;5031789;28;20209;-80
2022/11/05 11:07:38;;;;;;;7.07;5.47;;;;;;;;;;5026414;28;20246;-80
2022/11/05 11:10:06;;;;;;;12.17;6.00;;;;;;;;;;5023414;28;20223;-80
2022/11/05 11:12:36;;;;;;;9.07;5.40;;;;;;;;;;5033015;28;20308;-80
2022/11/05 11:15:05;;;;;;;9.57;5.73;;;;;;;;;;5042275;28;20234;-80
2022/11/05 11:17:33;;;;;;;8.90;6.20;;;;;;;;;;5030401;28;20238;-80
2022/11/05 11:20:14;;;;;;;9.30;5.03;;;;;;;;;;5031319;28;20228;-81
2022/11/05 11:22:41;;;;;;;9.10;5.17;;;;;;;;;;5043797;28;20241;-80
2022/11/05 11:25:19;;;;;;;7.47;4.90;;;;;;;;;;5051856;28;20297;-80
2022/11/05 11:27:48;;;;;;;7.70;5.20;;;;;;;;;;5046133;28;20324;-83
2022/11/05 11:30:17;;;;;;;15.03;7.00;;;;;;;;;;5032647;28;20222;-84
2022/11/05 11:32:45;;;;;;;7.37;5.20;;;;;;;;;;5031407;28;20230;-85
2022/11/05 11:35:20;;;;;;;9.87;6.17;;;;;;;;;;5030722;28;20213;-85
2022/11/05 11:37:48;;;;;;;8.10;5.13;;;;;;;;;;5031178;28;20238;-84
2022/11/05 11:40:16;;;;;;;10.97;4.60;;;;;;;;;;5031819;28;20736;-84
2022/11/05 11:42:46;;;;;;;7.57;4.33;;;;;;;;;;5031313;28;20234;-83
2022/11/05 11:45:18;;;;;;;7.00;4.37;;;;;;;;;;5032288;28;20211;-84
2022/11/05 11:47:46;;;;;;;8.10;4.63;;;;;;;;;;5031254;28;20234;-84
2022/11/05 11:50:35;;;;;;;9.53;3.70;;;;;;;;;;5031459;28;20707;-84
2022/11/05 11:53:16;;;;;;;11.47;4.17;;;;;;;;;;5031353;28;20235;-84
2022/11/05 11:55:57;;;;;;;5.13;4.10;;;;;;;;;;5031631;28;20191;-84
2022/11/05 11:58:25;;;;;;;6.83;3.97;;;;;;;;;;5032054;28;20237;-84
2022/11/05 12:01:02;;;;;;;4.53;3.80;;;;;;;;;;5031959;28;20265;-84
2022/11/05 12:03:34;;;;;;;4.57;3.63;;;;;;;;;;5032154;28;20279;-84
2022/11/05 12:06:04;;;;;;;8.40;3.97;;;;;;;;;;5031259;28;20191;-83
2022/11/05 12:08:38;;;;;;;9.77;3.60;;;;;;;;;;5031754;28;20597;-83
2022/11/05 12:11:08;;;;;;;6.73;3.50;;;;;;;;;;5031104;28;20217;-85
2022/11/05 12:13:55;;;;;;;6.03;3.67;;;;;;;;;;5031749;28;20203;-84
2022/11/05 12:16:28;;;;;;;7.23;3.53;;;;;;;;;;5031299;28;20238;-84
2022/11/05 12:18:57;;;;;;;4.20;2.70;;;;;;;;;;5031580;28;20234;-84
2022/11/05 12:21:27;;;;;;;4.93;3.03;;;;;;;;;;5032789;28;20608;-81
2022/11/05 12:23:59;;;;;;;7.67;3.87;;;;;;;;;;5023767;28;20230;-82
2022/11/05 12:26:29;;;;;;;9.87;3.47;;;;;;;;;;5015199;28;20253;-82
2022/11/05 12:29:17;;;;;;;4.33;2.70;;;;;;;;;;5014893;28;20242;-82
2022/11/05 12:31:50;;;;;;;4.83;3.33;;;;;;;;;;5038772;28;20698;-81
2022/11/05 12:34:25;;;;;;;5.27;3.47;;;;;;;;;;5055094;28;20205;-82
2022/11/05 12:37:03;;;;;;;5.13;3.10;;;;;;;;;;5054565;28;20241;-83
2022/11/05 12:39:37;;;;;;;5.63;3.10;;;;;;;;;;5054835;28;20232;-82
2022/11/05 12:42:08;;;;;;;7.33;3.63;;;;;;;;;;5054406;28;20730;-82
2022/11/05 12:44:49;;;;;;;5.53;3.27;;;;;;;;;;5054809;28;20618;-81
2022/11/05 12:47:23;;;;;;;5.83;2.83;;;;;;;;;;5054211;28;20643;-82
2022/11/05 12:49:59;;;;;;;4.30;3.10;;;;;;;;;;5047585;28;20600;-85
2022/11/05 12:52:33;;;;;;;5.97;2.90;;;;;;;;;;5035044;28;20234;-85
2022/11/05 12:55:09;;;;;;;3.73;2.60;;;;;;;;;;5035650;28;20194;-85
2022/11/05 12:57:38;;;;;;;4.53;2.50;;;;;;;;;;5034650;28;20249;-85
2022/11/05 13:00:07;;;;;;;3.37;2.43;;;;;;;;;;5035238;28;20226;-85
2022/11/05 13:02:38;;;;;;;7.03;2.57;;;;;;;;;;5034517;28;20329;-85
2022/11/05 13:05:07;;;;;;;6.23;2.90;;;;;;;;;;5038193;28;20210;-83
2022/11/05 13:07:35;;;;;;;5.37;3.00;;;;;;;;;;5034302;28;20241;-85
2022/11/05 13:10:05;;;;;;;6.30;2.97;;;;;;;;;;5035067;28;20311;-84
2022/11/05 13:12:34;;;;;;;5.37;2.67;;;;;;;;;;5034957;28;20601;-84
2022/11/05 13:15:04;;;;;;;3.97;3.30;;;;;;;;;;5035226;28;20211;-85
2022/11/05 13:17:34;;;;;;;3.77;2.10;;;;;;;;;;5023714;28;20246;-85
2022/11/05 13:20:06;;;;;;;5.93;2.63;;;;;;;;;;5015159;28;20262;-84
2022/11/05 13:22:36;;;;;;;5.30;2.90;;;;;;;;;;5014309;28;20263;-85
2022/11/05 13:25:05;;;;;;;3.27;2.50;;;;;;;;;;5015144;28;20573;-84
2022/11/05 13:27:46;;;;;;;5.27;2.30;;;;;;;;;;5018949;28;20223;-84
2022/11/05 13:30:15;;;;;;;7.13;2.63;;;;;;;;;;5033169;28;20248;-85
2022/11/05 13:32:44;;;;;;;6.63;2.73;;;;;;;;;;5034009;28;20230;-85
2022/11/05 13:35:17;;;;;;;3.67;2.90;;;;;;;;;;5035005;28;20290;-83
2022/11/05 13:40:38;;;;;;;6.47;2.93;;;;;;;;;;5035690;28;20609;-84
2022/11/05 13:43:13;;;;;;;5.37;3.00;;;;;;;;;;5056220;28;20238;-84
2022/11/05 13:46:04;;;;;;;3.20;2.73;;;;;;;;;;5059224;28;20324;-84
2022/11/05 13:48:54;;;;;;;3.37;2.57;;;;;;;;;;5056419;28;20265;-84
2022/11/05 13:51:28;;;;;;;5.33;2.70;;;;;;;;;;5057562;28;20278;-84
2022/11/05 13:54:03;;;;;;;2.90;2.50;;;;;;;;;;5056469;28;20768;-83
2022/11/05 13:56:34;;;;;;;6.07;3.20;;;;;;;;;;5036743;28;20237;-84
2022/11/05 13:59:06;;;;;;;6.60;3.07;;;;;;;;;;5034035;28;20773;-83
2022/11/05 14:01:42;;;;;;;7.40;3.33;;;;;;;;;;5036346;28;20703;-83
2022/11/05 14:04:15;;;;;;;6.67;3.27;;;;;;;;;;5036726;28;20217;-83
2022/11/05 14:06:43;;;;;;;6.73;3.07;;;;;;;;;;5034441;28;20230;-83
2022/11/05 14:09:11;;;;;;;5.00;3.03;;;;;;;;;;5033062;28;20747;-84
2022/11/05 14:11:41;;;;;;;5.23;2.83;;;;;;;;;;5032937;28;20238;-83
2022/11/05 14:14:09;;;;;;;5.57;3.20;;;;;;;;;;5033641;28;20206;-83
2022/11/05 14:16:58;;;;;;;10.13;3.87;;;;;;;;;;5032769;28;20722;-83
2022/11/05 14:19:30;;;;;;;5.10;3.00;;;;;;;;;;5029515;28;20223;-83
2022/11/05 14:21:59;;;;;;;6.60;3.50;;;;;;;;;;5032909;28;20245;-83
2022/11/05 14:24:42;;;;;;;8.30;4.27;;;;;;;;;;5033630;28;20210;-83
2022/11/05 14:27:28;;;;;;;5.13;3.33;;;;;;;;;;5031342;28;20226;-83
2022/11/05 14:29:56;;;;;;;7.50;3.00;;;;;;;;;;5032678;28;20246;-83
2022/11/05 14:32:27;;;;;;;3.20;2.90;;;;;;;;;;5032857;28;20242;-83
2022/11/05 14:34:56;;;;;;;7.53;3.27;;;;;;;;;;5033277;28;20191;-83
2022/11/05 14:37:29;;;;;;;4.60;3.67;;;;;;;;;;5032492;28;20260;-83
2022/11/05 14:39:57;;;;;;;5.73;3.17;;;;;;;;;;5032757;28;20233;-82
2022/11/05 14:42:26;;;;;;;8.57;3.23;;;;;;;;;;5032627;28;20235;-83
2022/11/05 14:44:58;;;;;;;5.90;2.70;;;;;;;;;;5031944;28;20206;-83
2022/11/05 14:47:27;;;;;;;3.00;2.70;;;;;;;;;;5032641;28;20309;-83
2022/11/05 14:49:58;;;;;;;3.37;2.60;;;;;;;;;;5032471;28;20227;-83
2022/11/05 14:52:25;;;;;;;4.70;2.83;;;;;;;;;;5032442;28;20245;-83
2022/11/05 14:54:55;;;;;;;3.37;2.73;;;;;;;;;;5032465;28;20207;-83
2022/11/05 14:57:37;;;;;;;5.53;2.97;;;;;;;;;;5032342;28;20258;-83
2022/11/05 15:00:05;;;;;;;5.90;3.10;;;;;;;;;;5032256;28;20226;-83
2022/11/05 15:02:35;;;;;;;5.33;3.20;;;;;;;;;;5032441;28;20318;-83
2022/11/05 15:05:20;;;;;;;2.60;2.40;;;;;;;;;;5032196;28;20210;-82
2022/11/05 15:07:56;;;;;;;2.50;2.30;;;;;;;;;;5031615;28;20233;-82
2022/11/05 15:10:27;;;;;;;4.37;2.70;;;;;;;;;;5028023;28;20222;-83
2022/11/05 15:12:57;;;;;;;4.13;2.40;;;;;;;;;;5012059;28;20603;-83
2022/11/05 15:15:26;;;;;;;4.43;2.00;;;;;;;;;;5012606;28;20679;-83
2022/11/05 15:17:59;;;;;;;1.87;1.67;;;;;;;;;;5011847;28;20603;-83
2022/11/05 15:20:30;;;;;;;2.83;2.10;;;;;;;;;;5013100;28;20228;-83
2022/11/05 15:22:58;;;;;;;2.57;2.17;;;;;;;;;;5011604;28;20238;-83